createdAt,value
2024-05-09T00:00:45.197Z,83.57
2024-05-09T00:01:40.100Z,83.65
2024-05-09T00:02:35.308Z,83.71
2024-05-09T00:03:30.568Z,83.67
2024-05-09T00:04:25.924Z,83.64
2024-05-09T00:05:21.084Z,83.57
2024-05-09T00:06:16.268Z,83.54
2024-05-09T00:07:11.292Z,83.49
2024-05-09T00:08:06.575Z,83.47
2024-05-09T00:09:01.763Z,83.52
2024-05-09T00:09:56.958Z,83.60
2024-05-09T00:10:52.401Z,83.62
2024-05-09T00:11:47.434Z,83.66
2024-05-09T00:12:42.547Z,83.69
2024-05-09T00:13:37.760Z,83.67
2024-05-09T00:14:32.997Z,83.63
2024-05-09T00:15:28.174Z,83.60
2024-05-09T00:16:23.359Z,83.53
2024-05-09T00:17:18.605Z,83.51
2024-05-09T00:18:14.011Z,83.48
2024-05-09T00:19:09.384Z,83.53
2024-05-09T00:20:10.917Z,83.57
2024-05-09T00:21:00.713Z,83.64
2024-05-09T00:21:54.618Z,83.69
2024-05-09T00:22:49.836Z,83.69
2024-05-09T00:23:45.053Z,83.65
2024-05-09T00:24:40.211Z,83.61
2024-05-09T00:25:35.709Z,83.57
2024-05-09T00:26:30.554Z,83.60
2024-05-09T00:27:25.741Z,83.67
2024-05-09T00:28:20.951Z,83.68
2024-05-09T00:29:16.375Z,83.73
2024-05-09T00:30:17.505Z,83.75
2024-05-09T00:31:07.735Z,83.75
2024-05-09T00:32:01.989Z,83.89
2024-05-09T00:32:57.241Z,83.85
2024-05-09T00:33:52.558Z,83.85
2024-05-09T00:34:47.547Z,83.92
2024-05-09T00:35:42.768Z,83.93
2024-05-09T00:36:37.936Z,83.88
2024-05-09T00:37:33.126Z,83.92
2024-05-09T00:38:28.374Z,83.90
2024-05-09T00:39:23.733Z,83.84
2024-05-09T00:40:27.163Z,83.84
2024-05-09T00:41:18.028Z,83.95
2024-05-09T00:42:09.189Z,83.95
2024-05-09T00:43:04.370Z,83.99
2024-05-09T00:43:59.598Z,84.10
2024-05-09T00:44:54.768Z,84.17
2024-05-09T00:45:49.944Z,84.21
2024-05-09T00:46:45.191Z,84.24
2024-05-09T00:47:40.613Z,84.33
2024-05-09T00:48:35.870Z,84.28
2024-05-09T00:49:31.019Z,84.22
2024-05-09T00:50:34.057Z,84.07
2024-05-09T00:51:22.410Z,84.00
2024-05-09T00:52:16.508Z,84.01
2024-05-09T00:53:12.652Z,83.95
2024-05-09T00:54:07.092Z,83.86
2024-05-09T00:55:02.141Z,83.83
2024-05-09T00:55:57.324Z,83.81
2024-05-09T00:56:52.524Z,83.80
2024-05-09T00:57:47.692Z,83.81
2024-05-09T00:58:42.939Z,83.81
2024-05-09T00:59:38.215Z,83.88
2024-05-09T01:00:39.012Z,83.86
2024-05-09T01:01:29.764Z,83.89
2024-05-09T01:02:23.834Z,83.91
2024-05-09T01:03:19.499Z,83.85
2024-05-09T01:04:14.138Z,83.83
2024-05-09T01:05:09.420Z,83.87
2024-05-09T01:06:04.465Z,83.92
2024-05-09T01:06:59.669Z,83.90
2024-05-09T01:07:54.919Z,83.79
2024-05-09T01:08:50.189Z,83.82
2024-05-09T01:09:45.246Z,83.87
2024-05-09T01:10:43.681Z,83.87
2024-05-09T01:11:35.892Z,83.95
2024-05-09T01:12:31.054Z,83.94
2024-05-09T01:13:26.096Z,83.98
2024-05-09T01:14:21.340Z,83.97
2024-05-09T01:15:16.524Z,83.96
2024-05-09T01:16:11.664Z,83.96
2024-05-09T01:17:06.964Z,83.95
2024-05-09T01:18:02.550Z,83.95
2024-05-09T01:18:57.352Z,83.96
2024-05-09T01:19:52.598Z,83.88
2024-05-09T01:20:47.650Z,83.94
2024-05-09T01:21:42.973Z,83.93
2024-05-09T01:22:38.036Z,83.93
2024-05-09T01:23:33.326Z,83.85
2024-05-09T01:24:28.478Z,83.77
2024-05-09T01:25:23.666Z,83.67
2024-05-09T01:26:18.898Z,83.72
2024-05-09T01:27:14.080Z,83.70
2024-05-09T01:28:09.256Z,83.56
2024-05-09T01:29:04.503Z,83.53
2024-05-09T01:29:59.694Z,83.53
2024-05-09T01:30:54.866Z,83.46
2024-05-09T01:31:50.205Z,83.43
2024-05-09T01:32:45.341Z,83.41
2024-05-09T01:33:40.567Z,83.46
2024-05-09T01:34:35.731Z,83.50
2024-05-09T01:35:30.947Z,83.53
2024-05-09T01:36:26.122Z,83.58
2024-05-09T01:37:21.328Z,83.47
2024-05-09T01:38:16.534Z,83.52
2024-05-09T01:39:11.720Z,83.50
2024-05-09T01:40:11.982Z,83.43
2024-05-09T01:41:03.114Z,83.38
2024-05-09T01:41:57.223Z,83.35
2024-05-09T01:42:52.393Z,83.35
2024-05-09T01:43:47.601Z,83.29
2024-05-09T01:44:42.803Z,83.17
2024-05-09T01:45:37.990Z,83.24
2024-05-09T01:46:33.304Z,83.29
2024-05-09T01:47:28.553Z,83.12
2024-05-09T01:48:23.740Z,83.10
2024-05-09T01:49:19.128Z,83.14
2024-05-09T01:51:09.309Z,83.13
2024-05-09T01:52:04.389Z,83.20
2024-05-09T01:52:59.597Z,83.09
2024-05-09T01:53:54.771Z,83.00
2024-05-09T01:54:49.973Z,82.98
2024-05-09T01:55:45.293Z,83.01
2024-05-09T01:56:40.500Z,83.07
2024-05-09T01:57:35.582Z,83.19
2024-05-09T01:58:30.761Z,83.10
2024-05-09T01:59:26.036Z,83.08
2024-05-09T02:00:30.258Z,82.97
2024-05-09T02:01:17.607Z,82.94
2024-05-09T02:02:11.950Z,82.81
2024-05-09T02:03:07.207Z,82.79
2024-05-09T02:04:02.626Z,82.77
2024-05-09T02:04:57.428Z,82.88
2024-05-09T02:05:52.600Z,82.89
2024-05-09T02:06:47.794Z,82.81
2024-05-09T02:07:42.925Z,82.74
2024-05-09T02:08:38.182Z,82.67
2024-05-09T02:09:33.487Z,82.76
2024-05-09T02:10:32.572Z,82.86
2024-05-09T02:11:23.781Z,82.98
2024-05-09T02:12:19.086Z,83.02
2024-05-09T02:13:14.078Z,83.11
2024-05-09T02:14:09.338Z,83.17
2024-05-09T02:15:04.508Z,83.23
2024-05-09T02:15:59.700Z,83.21
2024-05-09T02:16:55.093Z,83.08
2024-05-09T02:17:50.699Z,83.07
2024-05-09T02:18:45.381Z,83.06
2024-05-09T02:19:40.650Z,82.96
2024-05-09T02:20:36.930Z,82.79
2024-05-09T02:21:30.889Z,82.66
2024-05-09T02:22:26.090Z,82.60
2024-05-09T02:23:21.297Z,82.44
2024-05-09T02:24:16.444Z,82.43
2024-05-09T02:25:11.706Z,82.44
2024-05-09T02:26:06.956Z,82.51
2024-05-09T02:27:02.253Z,82.51
2024-05-09T02:27:57.309Z,82.43
2024-05-09T02:28:52.541Z,82.30
2024-05-09T02:29:47.747Z,82.28
2024-05-09T02:30:42.969Z,82.25
2024-05-09T02:31:38.124Z,82.25
2024-05-09T02:32:33.402Z,82.35
2024-05-09T02:33:28.708Z,82.49
2024-05-09T02:34:23.779Z,82.51
2024-05-09T02:35:19.062Z,82.56
2024-05-09T02:36:14.088Z,82.65
2024-05-09T02:37:09.405Z,82.72
2024-05-09T02:38:04.534Z,82.76
2024-05-09T02:38:59.714Z,82.73
2024-05-09T02:39:54.942Z,82.82
2024-05-09T02:40:50.205Z,82.92
2024-05-09T02:41:46.228Z,82.89
2024-05-09T02:42:41.290Z,83.00
2024-05-09T02:43:36.460Z,82.97
2024-05-09T02:44:31.937Z,83.03
2024-05-09T02:45:27.034Z,83.07
2024-05-09T02:46:22.198Z,83.18
2024-05-09T02:47:17.483Z,83.21
2024-05-09T02:48:13.856Z,83.22
2024-05-09T02:49:07.963Z,83.35
2024-05-09T02:50:04.527Z,83.39
2024-05-09T02:50:58.352Z,83.36
2024-05-09T02:51:53.673Z,83.38
2024-05-09T02:52:48.791Z,83.51
2024-05-09T02:53:44.030Z,83.43
2024-05-09T02:54:39.250Z,83.25
2024-05-09T02:55:34.464Z,83.26
2024-05-09T02:56:29.707Z,83.15
2024-05-09T02:57:24.785Z,83.07
2024-05-09T02:58:20.024Z,83.10
2024-05-09T02:59:15.315Z,83.12
2024-05-09T03:00:18.457Z,83.08
2024-05-09T03:01:06.633Z,83.15
2024-05-09T03:02:00.959Z,83.21
2024-05-09T03:02:56.155Z,83.16
2024-05-09T03:03:51.800Z,83.08
2024-05-09T03:04:46.725Z,83.08
2024-05-09T03:05:42.297Z,83.09
2024-05-09T03:06:37.021Z,83.11
2024-05-09T03:07:32.213Z,83.24
2024-05-09T03:08:27.590Z,83.38
2024-05-09T03:09:22.636Z,83.39
2024-05-09T03:10:22.451Z,83.36
2024-05-09T03:11:14.233Z,83.30
2024-05-09T03:12:08.171Z,83.34
2024-05-09T03:13:03.233Z,83.28
2024-05-09T03:13:58.246Z,83.22
2024-05-09T03:14:53.408Z,83.21
2024-05-09T03:15:48.501Z,83.28
2024-05-09T03:16:43.585Z,83.30
2024-05-09T03:17:38.868Z,83.27
2024-05-09T03:18:33.785Z,83.27
2024-05-09T03:19:28.721Z,83.38
2024-05-09T03:20:27.736Z,83.43
2024-05-09T03:21:19.885Z,83.49
2024-05-09T03:22:13.745Z,83.52
2024-05-09T03:23:09.963Z,83.56
2024-05-09T03:24:03.940Z,83.53
2024-05-09T03:25:00.665Z,83.76
2024-05-09T03:25:55.934Z,83.64
2024-05-09T03:26:51.097Z,83.63
2024-05-09T03:27:46.297Z,83.57
2024-05-09T03:28:41.567Z,83.54
2024-05-09T03:29:36.839Z,83.56
2024-05-09T03:30:39.937Z,83.52
2024-05-09T03:31:28.418Z,83.57
2024-05-09T03:32:22.633Z,83.59
2024-05-09T03:33:19.557Z,83.59
2024-05-09T03:34:12.736Z,83.65
2024-05-09T03:35:07.899Z,83.61
2024-05-09T03:36:03.173Z,83.52
2024-05-09T03:36:58.060Z,83.51
2024-05-09T03:37:53.100Z,83.45
2024-05-09T03:38:48.111Z,83.43
2024-05-09T03:39:43.107Z,83.44
2024-05-09T03:40:38.522Z,83.45
2024-05-09T03:41:34.506Z,83.50
2024-05-09T03:42:29.539Z,83.46
2024-05-09T03:43:25.368Z,83.51
2024-05-09T03:44:20.672Z,83.62
2024-05-09T03:45:16.180Z,83.64
2024-05-09T03:46:11.925Z,83.61
2024-05-09T03:47:07.149Z,83.50
2024-05-09T03:48:02.479Z,83.37
2024-05-09T03:48:58.875Z,83.39
2024-05-09T03:49:54.211Z,83.40
2024-05-09T03:50:50.058Z,83.38
2024-05-09T03:51:45.286Z,83.29
2024-05-09T03:52:40.600Z,83.33
2024-05-09T03:53:36.436Z,83.41
2024-05-09T03:54:31.635Z,83.49
2024-05-09T03:55:27.381Z,83.39
2024-05-09T03:56:22.739Z,83.39
2024-05-09T03:57:17.946Z,83.40
2024-05-09T03:58:13.664Z,83.35
2024-05-09T03:59:09.035Z,83.36
2024-05-09T04:00:07.354Z,83.31
2024-05-09T04:01:00.777Z,83.26
2024-05-09T04:01:56.077Z,83.30
2024-05-09T04:02:51.888Z,83.19
2024-05-09T04:03:47.366Z,83.09
2024-05-09T04:04:42.782Z,82.95
2024-05-09T04:05:38.616Z,82.93
2024-05-09T04:06:33.843Z,82.88
2024-05-09T04:07:29.755Z,82.70
2024-05-09T04:08:24.995Z,82.63
2024-05-09T04:09:20.382Z,82.69
2024-05-09T04:10:24.059Z,82.76
2024-05-09T04:11:12.767Z,82.84
2024-05-09T04:12:07.066Z,82.70
2024-05-09T04:13:02.490Z,82.67
2024-05-09T04:13:57.109Z,82.58
2024-05-09T04:14:52.070Z,82.50
2024-05-09T04:15:47.185Z,82.45
2024-05-09T04:16:42.175Z,82.47
2024-05-09T04:17:37.395Z,82.54
2024-05-09T04:18:32.470Z,82.49
2024-05-09T04:19:27.609Z,82.45
2024-05-09T04:20:33.098Z,82.51
2024-05-09T04:21:18.710Z,82.58
2024-05-09T04:22:12.626Z,82.65
2024-05-09T04:23:09.831Z,82.49
2024-05-09T04:24:04.781Z,82.38
2024-05-09T04:24:59.777Z,82.37
2024-05-09T04:25:55.119Z,82.39
2024-05-09T04:26:49.937Z,82.44
2024-05-09T04:27:45.032Z,82.46
2024-05-09T04:28:40.158Z,82.51
2024-05-09T04:29:35.371Z,82.57
2024-05-09T04:30:37.129Z,82.56
2024-05-09T04:31:26.479Z,82.61
2024-05-09T04:32:20.645Z,82.69
2024-05-09T04:33:15.978Z,82.71
2024-05-09T04:34:11.191Z,82.61
2024-05-09T04:35:06.601Z,82.57
2024-05-09T04:36:02.430Z,82.70
2024-05-09T04:36:57.596Z,82.73
2024-05-09T04:37:53.327Z,82.69
2024-05-09T04:38:48.708Z,82.64
2024-05-09T04:39:44.154Z,82.62
2024-05-09T04:40:39.886Z,82.54
2024-05-09T04:41:35.372Z,82.49
2024-05-09T04:42:30.615Z,82.51
2024-05-09T04:43:26.883Z,82.58
2024-05-09T04:44:22.322Z,82.51
2024-05-09T04:45:17.978Z,82.33
2024-05-09T04:46:13.555Z,82.15
2024-05-09T04:47:08.912Z,82.11
2024-05-09T04:48:04.821Z,82.06
2024-05-09T04:49:00.013Z,82.03
2024-05-09T04:49:55.425Z,82.11
2024-05-09T04:50:50.902Z,82.03
2024-05-09T04:51:46.270Z,82.00
2024-05-09T04:52:43.068Z,81.93
2024-05-09T04:53:38.638Z,81.83
2024-05-09T04:54:36.479Z,81.86
2024-05-09T04:55:29.837Z,81.91
2024-05-09T04:56:25.450Z,81.90
2024-05-09T04:57:20.713Z,81.86
2024-05-09T04:58:16.562Z,81.65
2024-05-09T04:59:12.083Z,81.48
2024-05-09T05:00:14.320Z,81.46
2024-05-09T05:01:03.846Z,81.50
2024-05-09T05:01:57.865Z,81.45
2024-05-09T05:02:53.073Z,81.22
2024-05-09T05:03:48.136Z,81.27
2024-05-09T05:04:43.236Z,81.19
2024-05-09T05:05:38.343Z,81.30
2024-05-09T05:06:33.279Z,81.35
2024-05-09T05:07:28.471Z,81.42
2024-05-09T05:08:23.604Z,81.34
2024-05-09T05:09:20.383Z,81.39
2024-05-09T05:10:21.591Z,81.33
2024-05-09T05:11:12.726Z,81.22
2024-05-09T05:12:10.432Z,81.20
2024-05-09T05:13:05.631Z,81.12
2024-05-09T05:14:01.171Z,81.17
2024-05-09T05:14:56.470Z,81.01
2024-05-09T05:15:52.349Z,80.42
2024-05-09T05:16:47.606Z,80.10
2024-05-09T05:17:43.198Z,79.97
2024-05-09T05:18:38.600Z,79.74
2024-05-09T05:19:34.082Z,79.90
2024-05-09T05:20:34.149Z,79.94
2024-05-09T05:21:28.724Z,80.02
2024-05-09T05:22:24.042Z,79.84
2024-05-09T05:23:19.704Z,79.71
2024-05-09T05:24:15.019Z,79.49
2024-05-09T05:25:10.475Z,79.48
2024-05-09T05:26:06.037Z,79.46
2024-05-09T05:27:01.350Z,79.42
2024-05-09T05:27:56.797Z,79.34
2024-05-09T05:28:52.385Z,79.34
2024-05-09T05:29:47.753Z,79.21
2024-05-09T05:30:43.202Z,79.05
2024-05-09T05:31:38.665Z,79.14
2024-05-09T05:32:34.115Z,79.11
2024-05-09T05:33:29.632Z,79.09
2024-05-09T05:34:24.572Z,78.94
2024-05-09T05:35:19.646Z,78.55
2024-05-09T05:36:14.864Z,78.39
2024-05-09T05:37:09.684Z,78.54
2024-05-09T05:38:04.841Z,78.74
2024-05-09T05:38:59.781Z,78.85
2024-05-09T05:39:54.865Z,78.54
2024-05-09T05:40:50.094Z,78.59
2024-05-09T05:41:45.135Z,78.48
2024-05-09T05:42:40.208Z,78.20
2024-05-09T05:43:36.774Z,78.15
2024-05-09T05:44:32.119Z,78.14
2024-05-09T05:45:27.581Z,78.12
2024-05-09T05:46:23.190Z,78.16
2024-05-09T05:47:18.665Z,78.04
2024-05-09T05:48:14.319Z,77.97
2024-05-09T05:49:09.905Z,78.06
2024-05-09T05:50:09.364Z,78.12
2024-05-09T05:51:04.203Z,77.89
2024-05-09T05:51:56.238Z,77.73
2024-05-09T05:52:51.950Z,77.74
2024-05-09T05:53:47.261Z,77.78
2024-05-09T05:54:42.544Z,77.53
2024-05-09T05:55:38.077Z,77.50
2024-05-09T05:56:33.618Z,77.61
2024-05-09T05:57:29.024Z,77.57
2024-05-09T05:58:24.518Z,77.51
2024-05-09T05:59:19.955Z,77.34
2024-05-09T06:00:25.420Z,76.65
2024-05-09T06:01:12.240Z,76.47
2024-05-09T06:02:06.543Z,76.70
2024-05-09T06:03:02.175Z,76.70
2024-05-09T06:03:57.331Z,76.60
2024-05-09T06:04:52.789Z,76.51
2024-05-09T06:05:52.156Z,76.41
2024-05-09T06:06:47.399Z,76.11
2024-05-09T06:07:42.948Z,75.98
2024-05-09T06:08:38.539Z,75.72
2024-05-09T06:09:33.899Z,75.61
2024-05-09T06:10:37.531Z,75.66
2024-05-09T06:11:25.717Z,76.06
2024-05-09T06:12:19.707Z,75.61
2024-05-09T06:13:14.733Z,75.28
2024-05-09T06:14:09.774Z,75.32
2024-05-09T06:15:04.833Z,75.51
2024-05-09T06:15:59.908Z,75.82
2024-05-09T06:16:57.683Z,75.56
2024-05-09T06:17:50.254Z,75.44
2024-05-09T06:18:45.199Z,74.96
2024-05-09T06:19:40.252Z,75.08
2024-05-09T06:20:37.676Z,75.02
2024-05-09T06:21:30.270Z,75.08
2024-05-09T06:22:25.593Z,74.90
2024-05-09T06:23:21.423Z,74.83
2024-05-09T06:24:16.778Z,74.48
2024-05-09T06:25:12.141Z,74.26
2024-05-09T06:26:07.279Z,74.37
2024-05-09T06:27:02.234Z,74.10
2024-05-09T06:27:57.363Z,74.24
2024-05-09T06:28:53.563Z,73.78
2024-05-09T06:29:48.680Z,73.77
2024-05-09T06:30:43.804Z,73.71
2024-05-09T06:31:38.809Z,73.59
2024-05-09T06:32:34.231Z,73.77
2024-05-09T06:33:29.232Z,73.55
2024-05-09T06:34:24.031Z,73.35
2024-05-09T06:35:19.050Z,73.22
2024-05-09T06:36:14.318Z,73.08
2024-05-09T06:37:09.167Z,73.18
2024-05-09T06:38:04.397Z,73.42
2024-05-09T06:38:59.283Z,73.64
2024-05-09T06:39:54.405Z,73.69
2024-05-09T06:40:49.568Z,73.18
2024-05-09T06:41:44.634Z,73.18
2024-05-09T06:42:39.554Z,73.03
2024-05-09T06:43:34.560Z,72.88
2024-05-09T06:44:29.715Z,73.14
2024-05-09T06:45:24.680Z,73.04
2024-05-09T06:46:19.730Z,72.84
2024-05-09T06:47:14.718Z,72.57
2024-05-09T06:48:10.358Z,72.42
2024-05-09T06:49:04.883Z,72.40
2024-05-09T06:49:59.796Z,72.54
2024-05-09T06:50:54.931Z,72.38
2024-05-09T06:51:49.802Z,72.60
2024-05-09T06:52:44.818Z,72.64
2024-05-09T06:53:40.122Z,72.06
2024-05-09T06:54:35.425Z,71.70
2024-05-09T06:55:31.128Z,71.58
2024-05-09T06:56:26.457Z,71.79
2024-05-09T06:57:21.867Z,71.45
2024-05-09T06:58:21.430Z,71.00
2024-05-09T06:59:16.972Z,70.58
2024-05-09T07:00:18.610Z,70.33
2024-05-09T07:01:09.142Z,70.04
2024-05-09T07:02:03.360Z,70.09
2024-05-09T07:03:01.667Z,69.65
2024-05-09T07:03:54.785Z,69.46
2024-05-09T07:04:50.141Z,69.51
2024-05-09T07:05:46.655Z,70.19
2024-05-09T07:06:40.991Z,69.05
2024-05-09T07:07:36.505Z,68.91
2024-05-09T07:08:31.615Z,69.12
2024-05-09T07:09:26.674Z,69.60
2024-05-09T07:10:25.708Z,69.84
2024-05-09T07:11:17.717Z,70.00
2024-05-09T07:12:11.918Z,69.09
2024-05-09T07:13:06.761Z,68.56
2024-05-09T07:14:02.091Z,68.23
2024-05-09T07:14:57.054Z,67.81
2024-05-09T07:15:52.217Z,67.98
2024-05-09T07:16:47.458Z,66.55
2024-05-09T07:17:42.585Z,67.06
2024-05-09T07:18:37.651Z,67.74
2024-05-09T07:19:32.680Z,67.83
2024-05-09T07:20:34.106Z,68.02
2024-05-09T07:21:24.727Z,69.08
2024-05-09T07:22:18.760Z,68.97
2024-05-09T07:23:14.314Z,68.47
2024-05-09T07:24:09.724Z,68.05
2024-05-09T07:25:05.229Z,68.21
2024-05-09T07:26:00.838Z,66.87
2024-05-09T07:26:56.107Z,66.74
2024-05-09T07:27:51.688Z,66.30
2024-05-09T07:28:47.300Z,66.33
2024-05-09T07:29:42.834Z,65.10
2024-05-09T07:30:38.143Z,65.60
2024-05-09T07:31:33.434Z,65.42
2024-05-09T07:32:29.069Z,64.96
2024-05-09T07:33:24.862Z,64.15
2024-05-09T07:34:20.038Z,64.94
2024-05-09T07:35:14.991Z,65.20
2024-05-09T07:36:10.006Z,64.46
2024-05-09T07:37:05.072Z,65.71
2024-05-09T07:38:00.188Z,65.97
2024-05-09T07:38:55.101Z,65.98
2024-05-09T07:39:50.140Z,66.07
2024-05-09T07:40:45.457Z,65.03
2024-05-09T07:41:40.325Z,64.82
2024-05-09T07:42:35.487Z,64.22
2024-05-09T07:43:30.525Z,63.41
2024-05-09T07:44:28.794Z,64.04
2024-05-09T07:45:41.703Z,64.40
2024-05-09T07:47:14.149Z,65.73
2024-05-09T07:48:28.906Z,66.29
2024-05-09T07:49:44.918Z,66.52
2024-05-09T07:53:20.965Z,64.76
2024-05-09T07:53:34.555Z,64.29
2024-05-09T07:53:46.980Z,63.70
2024-05-09T07:54:38.865Z,62.80
2024-05-09T07:55:32.942Z,62.99
2024-05-09T07:56:28.222Z,63.05
2024-05-09T07:57:22.959Z,62.08
2024-05-09T07:58:18.007Z,61.58
2024-05-09T07:59:13.033Z,61.97
2024-05-09T08:00:11.919Z,62.83
2024-05-09T08:01:06.342Z,61.55
2024-05-09T08:02:00.844Z,60.87
2024-05-09T08:02:56.181Z,60.80
2024-05-09T08:03:51.773Z,62.48
2024-05-09T08:04:47.143Z,63.12
2024-05-09T08:05:42.772Z,63.29
2024-05-09T08:06:38.239Z,61.34
2024-05-09T08:07:33.522Z,61.06
2024-05-09T08:08:29.204Z,61.52
2024-05-09T08:09:24.607Z,62.23
2024-05-09T08:10:24.520Z,62.44
2024-05-09T08:11:16.691Z,62.65
2024-05-09T08:12:11.193Z,62.72
2024-05-09T08:13:06.823Z,62.35
2024-05-09T08:14:01.746Z,62.18
2024-05-09T08:14:56.754Z,61.37
2024-05-09T08:15:51.935Z,61.25
2024-05-09T08:16:46.882Z,61.54
2024-05-09T08:17:42.043Z,61.12
2024-05-09T08:18:37.236Z,60.54
2024-05-09T08:19:32.000Z,61.18
2024-05-09T08:20:31.218Z,61.05
2024-05-09T08:21:23.115Z,60.22
2024-05-09T08:22:17.105Z,60.31
2024-05-09T08:23:13.444Z,59.77
2024-05-09T08:24:09.111Z,59.67
2024-05-09T08:25:04.572Z,58.52
2024-05-09T08:26:00.328Z,58.44
2024-05-09T08:26:55.635Z,59.09
2024-05-09T08:27:51.186Z,60.28
2024-05-09T08:28:46.720Z,60.03
2024-05-09T08:29:42.325Z,59.72
2024-05-09T08:30:38.418Z,58.89
2024-05-09T08:31:33.927Z,58.35
2024-05-09T08:32:29.208Z,58.61
2024-05-09T08:33:24.220Z,59.68
2024-05-09T08:34:19.250Z,60.58
2024-05-09T08:35:14.213Z,60.89
2024-05-09T08:36:09.267Z,60.79
2024-05-09T08:37:12.911Z,61.17
2024-05-09T08:38:00.391Z,61.81
2024-05-09T08:38:54.396Z,62.00
2024-05-09T08:39:49.471Z,62.83
2024-05-09T08:40:44.626Z,63.20
2024-05-09T08:41:39.431Z,63.22
2024-05-09T08:42:34.534Z,61.44
2024-05-09T08:43:29.580Z,59.94
2024-05-09T08:44:24.741Z,58.99
2024-05-09T08:45:20.283Z,58.09
2024-05-09T08:46:15.924Z,58.48
2024-05-09T08:47:11.277Z,58.78
2024-05-09T08:48:10.162Z,59.07
2024-05-09T08:49:05.656Z,58.86
2024-05-09T08:50:01.414Z,59.35
2024-05-09T08:50:56.602Z,59.07
2024-05-09T08:51:52.018Z,57.76
2024-05-09T08:52:47.094Z,57.95
2024-05-09T08:53:42.090Z,58.69
2024-05-09T08:54:37.211Z,58.46
2024-05-09T08:55:32.260Z,58.48
2024-05-09T08:56:27.231Z,58.84
2024-05-09T08:57:22.464Z,58.53
2024-05-09T08:58:17.642Z,59.23
2024-05-09T08:59:12.559Z,59.25
2024-05-09T09:00:12.526Z,58.42
2024-05-09T09:01:03.660Z,58.55
2024-05-09T09:01:57.875Z,57.50
2024-05-09T09:02:52.865Z,58.17
2024-05-09T09:03:48.297Z,58.19
2024-05-09T09:04:43.786Z,58.21
2024-05-09T09:05:39.826Z,57.08
2024-05-09T09:06:34.915Z,56.11
2024-05-09T09:07:30.573Z,56.39
2024-05-09T09:08:25.617Z,55.15
2024-05-09T09:09:21.059Z,55.41
2024-05-09T09:10:24.948Z,56.05
2024-05-09T09:11:13.091Z,56.45
2024-05-09T09:12:10.188Z,55.70
2024-05-09T09:13:02.902Z,55.99
2024-05-09T09:13:58.363Z,55.69
2024-05-09T09:14:55.266Z,55.33
2024-05-09T09:15:48.793Z,54.68
2024-05-09T09:16:43.836Z,55.22
2024-05-09T09:17:38.958Z,55.29
2024-05-09T09:18:34.240Z,56.13
2024-05-09T09:19:29.095Z,55.78
2024-05-09T09:20:29.528Z,55.10
2024-05-09T09:21:20.154Z,55.98
2024-05-09T09:22:15.902Z,55.97
2024-05-09T09:23:10.870Z,54.79
2024-05-09T09:24:07.492Z,54.78
2024-05-09T09:25:00.971Z,54.04
2024-05-09T09:25:56.503Z,53.85
2024-05-09T09:26:52.100Z,53.22
2024-05-09T09:27:47.632Z,52.83
2024-05-09T09:28:43.032Z,51.92
2024-05-09T09:29:38.481Z,52.43
2024-05-09T09:30:37.453Z,54.11
2024-05-09T09:31:29.634Z,52.99
2024-05-09T09:32:24.923Z,52.42
2024-05-09T09:33:20.635Z,53.15
2024-05-09T09:34:16.148Z,53.32
2024-05-09T09:35:11.259Z,53.78
2024-05-09T09:36:08.409Z,54.05
2024-05-09T09:37:02.416Z,53.98
2024-05-09T09:37:57.934Z,54.52
2024-05-09T09:38:52.906Z,54.99
2024-05-09T09:39:49.207Z,55.22
2024-05-09T09:40:46.973Z,55.28
2024-05-09T09:41:39.058Z,54.88
2024-05-09T09:42:33.205Z,55.49
2024-05-09T09:43:28.190Z,54.75
2024-05-09T09:44:23.250Z,55.13
2024-05-09T09:45:20.964Z,56.28
2024-05-09T09:46:16.232Z,55.73
2024-05-09T09:47:11.275Z,55.95
2024-05-09T09:48:06.485Z,55.75
2024-05-09T09:49:02.276Z,55.73
2024-05-09T09:49:57.842Z,54.73
2024-05-09T09:50:53.262Z,55.45
2024-05-09T09:51:48.791Z,55.39
2024-05-09T09:52:44.439Z,56.20
2024-05-09T09:53:39.874Z,56.17
2024-05-09T09:54:35.378Z,55.55
2024-05-09T09:55:31.031Z,55.12
2024-05-09T09:56:26.543Z,54.96
2024-05-09T09:57:21.911Z,54.35
2024-05-09T09:58:17.843Z,54.21
2024-05-09T09:59:12.991Z,55.07
2024-05-09T10:00:11.786Z,54.18
2024-05-09T10:01:04.129Z,54.14
2024-05-09T10:01:59.620Z,54.41
2024-05-09T10:02:55.135Z,54.84
2024-05-09T10:03:50.507Z,55.12
2024-05-09T10:04:45.997Z,55.45
2024-05-09T10:05:44.265Z,55.24
2024-05-09T10:06:37.902Z,55.31
2024-05-09T10:07:32.334Z,55.31
2024-05-09T10:08:27.917Z,54.87
2024-05-09T10:09:23.508Z,54.50
2024-05-09T10:10:26.934Z,54.06
2024-05-09T10:11:15.079Z,54.10
2024-05-09T10:12:09.600Z,54.20
2024-05-09T10:13:04.528Z,54.78
2024-05-09T10:13:59.334Z,54.82
2024-05-09T10:14:54.397Z,54.91
2024-05-09T10:15:49.430Z,55.32
2024-05-09T10:16:44.494Z,54.18
2024-05-09T10:17:39.573Z,52.91
2024-05-09T10:18:34.910Z,52.28
2024-05-09T10:19:29.677Z,51.74
2024-05-09T10:20:28.099Z,52.37
2024-05-09T10:21:20.940Z,52.04
2024-05-09T10:22:17.823Z,52.57
2024-05-09T10:23:13.067Z,53.11
2024-05-09T10:24:08.086Z,53.46
2024-05-09T10:25:05.126Z,54.21
2024-05-09T10:25:58.076Z,54.17
2024-05-09T10:26:53.262Z,52.98
2024-05-09T10:27:48.444Z,52.97
2024-05-09T10:28:43.666Z,52.22
2024-05-09T10:29:38.608Z,51.77
2024-05-09T10:30:36.264Z,52.70
2024-05-09T10:31:29.661Z,52.20
2024-05-09T10:32:25.154Z,51.81
2024-05-09T10:33:21.022Z,51.31
2024-05-09T10:34:16.512Z,52.34
2024-05-09T10:35:11.802Z,52.87
2024-05-09T10:36:07.806Z,52.30
2024-05-09T10:37:04.977Z,51.89
2024-05-09T10:37:58.860Z,52.08
2024-05-09T10:38:54.294Z,51.93
2024-05-09T10:39:49.722Z,52.30
2024-05-09T10:40:45.753Z,53.13
2024-05-09T10:41:41.143Z,52.55
2024-05-09T10:42:36.685Z,51.80
2024-05-09T10:43:32.777Z,51.42
2024-05-09T10:44:28.377Z,51.03
2024-05-09T10:45:24.150Z,51.31
2024-05-09T10:46:20.130Z,51.22
2024-05-09T10:47:15.040Z,51.83
2024-05-09T10:48:11.157Z,52.32
2024-05-09T10:49:08.016Z,52.06
2024-05-09T10:50:02.553Z,51.81
2024-05-09T10:50:57.892Z,51.28
2024-05-09T10:51:53.336Z,50.25
2024-05-09T10:52:48.994Z,50.26
2024-05-09T10:53:44.555Z,50.80
2024-05-09T10:54:40.095Z,51.13
2024-05-09T10:55:36.116Z,50.41
2024-05-09T10:56:31.782Z,49.05
2024-05-09T10:57:27.733Z,49.45
2024-05-09T10:58:23.201Z,48.44
2024-05-09T10:59:18.740Z,48.47
2024-05-09T11:00:23.234Z,48.04
2024-05-09T11:01:10.971Z,48.88
2024-05-09T11:02:05.446Z,49.05
2024-05-09T11:03:00.924Z,49.97
2024-05-09T11:03:56.564Z,50.73
2024-05-09T11:04:52.347Z,50.03
2024-05-09T11:05:47.619Z,50.42
2024-05-09T11:06:43.003Z,48.61
2024-05-09T11:07:39.223Z,48.22
2024-05-09T11:08:34.711Z,46.96
2024-05-09T11:09:30.642Z,48.41
2024-05-09T11:10:33.355Z,48.87
2024-05-09T11:11:22.808Z,48.44
2024-05-09T11:12:17.936Z,48.32
2024-05-09T11:13:13.380Z,46.43
2024-05-09T11:14:08.665Z,46.28
2024-05-09T11:15:03.901Z,47.61
2024-05-09T11:15:59.749Z,47.99
2024-05-09T11:16:55.199Z,48.33
2024-05-09T11:17:51.146Z,48.42
2024-05-09T11:18:46.458Z,48.63
2024-05-09T11:19:42.051Z,48.58
2024-05-09T11:20:38.011Z,48.77
2024-05-09T11:21:33.339Z,48.36
2024-05-09T11:22:29.222Z,49.18
2024-05-09T11:23:24.603Z,49.68
2024-05-09T11:24:20.224Z,48.79
2024-05-09T11:25:16.033Z,49.13
2024-05-09T11:26:11.445Z,49.36
2024-05-09T11:27:07.316Z,48.35
2024-05-09T11:28:02.691Z,49.08
2024-05-09T11:28:57.974Z,48.39
2024-05-09T11:29:53.890Z,49.12
2024-05-09T11:30:49.253Z,48.96
2024-05-09T11:31:44.717Z,49.22
2024-05-09T11:32:41.042Z,49.37
2024-05-09T11:33:36.838Z,50.02
2024-05-09T11:34:32.458Z,50.75
2024-05-09T11:35:27.880Z,51.56
2024-05-09T11:36:23.415Z,52.24
2024-05-09T11:37:19.186Z,53.40
2024-05-09T11:38:14.536Z,53.55
2024-05-09T11:39:10.725Z,53.47
2024-05-09T11:40:11.452Z,53.19
2024-05-09T11:41:02.833Z,54.05
2024-05-09T11:41:57.415Z,53.66
2024-05-09T11:42:53.591Z,52.60
2024-05-09T11:43:48.362Z,52.96
2024-05-09T11:44:44.075Z,52.91
2024-05-09T11:45:38.903Z,53.08
2024-05-09T11:46:33.897Z,53.07
2024-05-09T11:47:29.074Z,53.48
2024-05-09T11:48:24.306Z,53.61
2024-05-09T11:49:19.293Z,53.70
2024-05-09T11:50:22.507Z,53.96
2024-05-09T11:51:10.367Z,54.71
2024-05-09T11:52:04.479Z,55.25
2024-05-09T11:52:59.581Z,54.59
2024-05-09T11:53:55.129Z,53.77
2024-05-09T11:54:50.875Z,54.03
2024-05-09T11:55:46.414Z,54.07
2024-05-09T11:56:42.101Z,54.24